createdAt,value
2019-04-22T00:01:31.238Z,9.52
2019-04-22T00:04:03.628Z,9.47
2019-04-22T00:06:57.996Z,9.48
2019-04-22T00:09:30.962Z,9.45
2019-04-22T00:12:07.462Z,9.38
2019-04-22T00:14:28.030Z,9.33
2019-04-22T00:17:07.041Z,9.32
2019-04-22T00:19:43.780Z,9.28
2019-04-22T00:22:18.536Z,9.26
2019-04-22T00:24:46.201Z,9.22
2019-04-22T00:27:20.617Z,9.19
2019-04-22T00:30:01.779Z,9.19
2019-04-22T00:32:58.990Z,9.20
2019-04-22T00:35:23.688Z,9.11
2019-04-22T00:38:05.687Z,9.08
2019-04-22T00:40:33.919Z,9.07
2019-04-22T00:43:06.509Z,9.08
2019-04-22T00:45:40.163Z,9.06
2019-04-22T00:48:16.238Z,9.03
2019-04-22T00:50:58.342Z,8.78
2019-04-22T00:53:16.490Z,8.95
2019-04-22T00:56:11.189Z,8.73
2019-04-22T00:58:41.245Z,8.79
2019-04-22T01:03:51.056Z,8.68
2019-04-22T01:06:20.361Z,8.62
2019-04-22T01:13:55.846Z,8.71
2019-04-22T01:16:28.315Z,8.76
2019-04-22T01:19:00.535Z,8.81
2019-04-22T01:21:36.357Z,8.83
2019-04-22T01:24:05.832Z,8.85
2019-04-22T01:26:30.007Z,8.84
2019-04-22T01:29:03.948Z,8.84
2019-04-22T01:31:25.371Z,8.86
2019-04-22T01:34:08.179Z,8.89
2019-04-22T01:36:48.586Z,8.90
2019-04-22T01:39:25.841Z,8.43
2019-04-22T01:41:59.966Z,8.86
2019-04-22T01:44:45.475Z,8.81
2019-04-22T01:47:08.178Z,8.79
2019-04-22T01:49:33.425Z,8.78
2019-04-22T01:52:05.086Z,8.81
2019-04-22T01:54:43.286Z,8.81
2019-04-22T01:57:03.218Z,8.80
2019-04-22T01:59:35.513Z,8.69
2019-04-22T02:02:16.389Z,8.64
2019-04-22T02:04:53.198Z,8.67
2019-04-22T02:09:49.507Z,8.63
2019-04-22T02:12:25.872Z,8.50
2019-04-22T02:15:13.831Z,8.54
2019-04-22T02:17:31.513Z,8.50
2019-04-22T02:20:09.297Z,8.46
2019-04-22T02:22:50.823Z,8.45
2019-04-22T02:25:09.070Z,8.46
2019-04-22T02:27:49.319Z,8.46
2019-04-22T02:30:05.489Z,8.40
2019-04-22T02:33:03.883Z,8.44
2019-04-22T02:35:52.147Z,8.39
2019-04-22T02:37:45.419Z,8.42
2019-04-22T02:40:34.166Z,8.44
2019-04-22T02:43:01.778Z,8.31
2019-04-22T02:45:37.684Z,8.08
2019-04-22T02:48:10.750Z,7.99
2019-04-22T02:50:30.863Z,7.96
2019-04-22T02:53:17.532Z,8.03
2019-04-22T02:55:41.198Z,8.16
2019-04-22T02:58:12.689Z,8.28
2019-04-22T03:00:51.962Z,8.33
2019-04-22T03:05:59.203Z,8.31
2019-04-22T03:08:25.339Z,8.18
2019-04-22T03:11:13.110Z,8.28
2019-04-22T03:16:08.059Z,8.25
2019-04-22T03:18:42.043Z,8.20
2019-04-22T03:23:45.693Z,8.29
2019-04-22T03:26:27.517Z,8.21
2019-04-22T03:28:49.794Z,8.04
2019-04-22T03:32:36.139Z,8.07
2019-04-22T03:42:28.040Z,7.91
2019-04-22T03:47:38.707Z,7.85
2019-04-22T03:52:20.558Z,7.85
2019-04-22T03:55:05.091Z,7.98
2019-04-22T04:00:15.728Z,8.22
2019-04-22T04:02:41.001Z,8.32
2019-04-22T04:05:14.332Z,8.42
2019-04-22T04:10:21.541Z,8.62
2019-04-22T04:12:51.129Z,8.71
2019-04-22T04:15:21.008Z,8.86
2019-04-22T04:23:05.490Z,9.03
2019-04-22T04:25:37.993Z,9.05
2019-04-22T04:28:26.957Z,9.22
2019-04-22T04:37:58.827Z,9.65
2019-04-22T04:40:45.595Z,9.69
2019-04-22T04:43:10.020Z,9.94
2019-04-22T04:45:44.856Z,10.09
2019-04-22T04:48:14.494Z,10.41
2019-04-22T04:51:03.960Z,10.46
2019-04-22T04:53:23.147Z,10.68
2019-04-22T04:55:59.851Z,10.83
2019-04-22T04:58:36.666Z,11.01
2019-04-22T05:01:05.675Z,11.13
2019-04-22T05:03:39.591Z,11.32
2019-04-22T05:06:09.213Z,11.49
2019-04-22T05:08:54.595Z,11.58
2019-04-22T05:11:05.594Z,10.93
2019-04-22T05:18:46.514Z,12.46
2019-04-22T05:21:19.853Z,12.46
2019-04-22T05:23:43.893Z,12.64
2019-04-22T05:26:25.396Z,12.72
2019-04-22T05:28:55.243Z,13.02
2019-04-22T05:31:24.079Z,12.88
2019-04-22T05:33:47.747Z,13.14
2019-04-22T05:36:42.700Z,13.50
2019-04-22T05:41:30.470Z,13.81
2019-04-22T05:44:05.072Z,13.71
2019-04-22T05:46:34.810Z,13.72
2019-04-22T05:49:11.021Z,13.75
2019-04-22T05:51:37.007Z,13.90
2019-04-22T05:54:13.087Z,13.97
2019-04-22T06:01:52.257Z,14.24
2019-04-22T06:04:19.915Z,14.61
2019-04-22T06:06:46.878Z,14.93
2019-04-22T06:09:24.732Z,14.89
2019-04-22T06:11:55.547Z,15.25
2019-04-22T06:14:26.471Z,14.76
2019-04-22T06:19:38.541Z,14.84
2019-04-22T06:22:18.830Z,14.97
2019-04-22T06:24:47.443Z,15.24
2019-04-22T06:27:26.730Z,15.57
2019-04-22T06:29:41.391Z,15.55
2019-04-22T06:32:26.740Z,15.94
2019-04-22T06:34:52.540Z,15.79
2019-04-22T06:37:25.730Z,16.02
2019-04-22T06:39:51.210Z,16.08
2019-04-22T06:42:28.845Z,16.35
2019-04-22T06:45:07.283Z,16.13
2019-04-22T06:47:44.109Z,16.38
2019-04-22T06:50:07.590Z,16.52
2019-04-22T06:52:40.645Z,16.83
2019-04-22T06:55:28.661Z,16.54
2019-04-22T06:57:45.301Z,16.79
2019-04-22T07:00:22.539Z,17.06
2019-04-22T07:03:12.572Z,17.02
2019-04-22T07:05:23.560Z,16.30
2019-04-22T07:08:02.788Z,17.10
2019-04-22T07:12:56.585Z,17.23
2019-04-22T07:15:42.162Z,17.44
2019-04-22T07:18:04.299Z,17.30
2019-04-22T07:20:36.783Z,17.53
2019-04-22T07:23:07.928Z,17.52
2019-04-22T07:28:20.177Z,17.19
2019-04-22T07:30:57.945Z,17.44
2019-04-22T07:33:34.826Z,17.56
2019-04-22T07:35:54.895Z,17.61
2019-04-22T07:38:25.657Z,17.36
2019-04-22T07:40:50.393Z,17.28
2019-04-22T07:45:53.744Z,17.27
2019-04-22T07:48:38.198Z,17.38
2019-04-22T07:51:05.540Z,17.39
2019-04-22T07:53:33.795Z,17.28
2019-04-22T07:56:05.441Z,17.44
2019-04-22T07:58:38.757Z,17.37
2019-04-22T08:01:18.510Z,17.32
2019-04-22T08:03:54.904Z,17.41
2019-04-22T08:06:17.511Z,17.31
2019-04-22T08:08:46.250Z,16.88
2019-04-22T08:11:37.610Z,17.58
2019-04-22T08:13:47.424Z,17.56
2019-04-22T08:16:23.574Z,17.59
2019-04-22T08:19:15.579Z,17.48
2019-04-22T08:21:33.294Z,17.57
2019-04-22T08:24:01.231Z,17.52
2019-04-22T08:26:31.986Z,17.70
2019-04-22T08:29:12.305Z,17.89
2019-04-22T08:31:42.022Z,17.89
2019-04-22T08:34:13.733Z,17.81
2019-04-22T08:36:54.028Z,17.64
2019-04-22T08:41:46.583Z,17.95
2019-04-22T08:44:20.383Z,18.05
2019-04-22T08:46:57.865Z,17.80
2019-04-22T08:49:26.607Z,17.92
2019-04-22T08:51:56.246Z,18.08
2019-04-22T08:54:39.083Z,18.31
2019-04-22T08:57:01.870Z,18.52
2019-04-22T08:59:38.563Z,18.48
2019-04-22T09:02:16.663Z,18.69
2019-04-22T09:04:37.050Z,18.88
2019-04-22T09:09:44.785Z,19.18
2019-04-22T09:12:26.850Z,18.57
2019-04-22T09:14:45.871Z,19.26
2019-04-22T09:17:28.602Z,19.21
2019-04-22T09:19:56.017Z,19.27
2019-04-22T09:22:21.856Z,19.46
2019-04-22T09:24:57.322Z,19.43
2019-04-22T09:30:10.246Z,19.07
2019-04-22T09:32:38.687Z,19.22
2019-04-22T09:35:24.808Z,19.34
2019-04-22T09:45:15.473Z,19.41
2019-04-22T09:47:55.303Z,19.57
2019-04-22T09:50:27.602Z,19.58
2019-04-22T09:52:54.978Z,18.83
2019-04-22T09:55:26.648Z,19.26
2019-04-22T09:57:55.714Z,19.54
2019-04-22T10:00:38.075Z,19.44
2019-04-22T10:03:08.062Z,19.13
2019-04-22T10:05:48.347Z,19.33
2019-04-22T10:08:21.852Z,19.38
2019-04-22T10:10:48.977Z,19.18
2019-04-22T10:13:21.489Z,19.29
2019-04-22T10:15:54.397Z,19.12
2019-04-22T10:18:26.219Z,19.17
2019-04-22T10:20:54.196Z,19.24
2019-04-22T10:23:24.817Z,19.28
2019-04-22T10:25:59.089Z,19.34
2019-04-22T10:30:59.893Z,19.52
2019-04-22T10:33:32.745Z,19.43
2019-04-22T10:35:43.578Z,18.92
2019-04-22T10:38:14.419Z,19.80
2019-04-22T10:40:44.969Z,19.83
2019-04-22T10:43:16.956Z,19.95
2019-04-22T10:45:48.111Z,20.00
2019-04-22T10:48:18.668Z,20.07
2019-04-22T10:50:50.619Z,19.98
2019-04-22T10:53:21.694Z,19.73
2019-04-22T10:55:52.446Z,19.76
2019-04-22T10:58:24.661Z,19.77
2019-04-22T11:00:56.183Z,19.89
2019-04-22T11:03:28.262Z,19.69
2019-04-22T11:05:59.456Z,19.87
2019-04-22T11:08:38.588Z,19.96
2019-04-22T11:11:16.937Z,19.78
2019-04-22T11:13:35.891Z,20.01
2019-04-22T11:16:07.631Z,19.96
2019-04-22T11:18:38.233Z,20.02
2019-04-22T11:21:09.644Z,20.07
2019-04-22T11:23:40.785Z,19.95
2019-04-22T11:26:12.202Z,20.00
2019-04-22T11:28:43.401Z,20.10
2019-04-22T11:31:14.741Z,20.21
2019-04-22T11:33:45.469Z,20.22
2019-04-22T11:36:17.739Z,20.21
2019-04-22T11:38:54.067Z,20.22
2019-04-22T11:41:21.567Z,18.88
2019-04-22T11:43:53.597Z,20.23
2019-04-22T11:46:25.312Z,20.26
2019-04-22T11:48:56.079Z,20.38
2019-04-22T11:51:27.573Z,20.43
2019-04-22T11:53:58.902Z,20.43
2019-04-22T11:56:29.490Z,20.24
2019-04-22T11:59:00.702Z,20.40
2019-04-22T12:01:32.833Z,20.35
2019-04-22T12:04:04.041Z,20.36
2019-04-22T12:06:36.003Z,20.46
2019-04-22T12:09:10.170Z,20.55
2019-04-22T12:11:40.879Z,20.56
2019-04-22T12:14:11.838Z,20.52
2019-04-22T12:16:43.632Z,19.92
2019-04-22T12:19:15.666Z,20.59
2019-04-22T12:21:46.812Z,20.70
2019-04-22T12:24:17.370Z,20.78
2019-04-22T12:26:48.380Z,20.81
2019-04-22T12:29:18.991Z,20.87
2019-04-22T12:31:49.534Z,20.87
2019-04-22T12:34:21.440Z,20.90
2019-04-22T12:36:52.015Z,20.97
2019-04-22T12:39:23.266Z,20.99
2019-04-22T12:41:54.088Z,20.98
2019-04-22T12:44:26.600Z,21.07
2019-04-22T12:47:00.228Z,21.07
2019-04-22T12:49:30.054Z,21.12
2019-04-22T12:52:03.167Z,21.20
2019-04-22T12:54:35.194Z,21.25
2019-04-22T12:57:10.333Z,21.36
2019-04-22T12:59:41.844Z,21.28
2019-04-22T13:02:13.465Z,21.35
2019-04-22T13:04:45.909Z,21.49
2019-04-22T13:07:17.678Z,21.46
2019-04-22T13:09:49.505Z,21.48
2019-04-22T13:12:22.406Z,21.35
2019-04-22T13:15:04.361Z,21.39
2019-04-22T13:17:32.963Z,21.38
2019-04-22T13:20:07.982Z,21.52
2019-04-22T13:22:43.030Z,21.57
2019-04-22T13:25:23.298Z,21.59
2019-04-22T13:27:57.497Z,21.49
2019-04-22T13:30:30.557Z,21.52
2019-04-22T13:33:02.985Z,21.57
2019-04-22T13:35:33.905Z,21.60
2019-04-22T13:38:04.843Z,21.75
2019-04-22T13:40:37.156Z,21.67
2019-04-22T13:43:08.797Z,21.69
2019-04-22T13:45:40.794Z,21.75
2019-04-22T13:48:29.674Z,21.61
2019-04-22T13:51:24.357Z,21.53
2019-04-22T13:56:10.745Z,21.58
2019-04-22T13:58:36.414Z,21.51
2019-04-22T14:00:54.395Z,21.50
2019-04-22T14:03:49.924Z,21.56
2019-04-22T14:06:20.700Z,21.58
2019-04-22T14:08:51.530Z,21.24
2019-04-22T14:11:34.488Z,21.57
2019-04-22T14:13:56.610Z,21.59
2019-04-22T14:16:28.882Z,21.75
2019-04-22T14:19:00.225Z,21.63
2019-04-22T14:21:30.977Z,21.62
2019-04-22T14:24:02.703Z,21.51
2019-04-22T14:26:44.082Z,21.65
2019-04-22T14:29:06.083Z,21.53
2019-04-22T14:31:36.587Z,21.54
2019-04-22T14:34:08.159Z,21.42
2019-04-22T14:36:41.379Z,21.30
2019-04-22T14:39:12.349Z,21.36
2019-04-22T14:41:57.332Z,21.33
2019-04-22T14:47:12.851Z,20.43
2019-04-22T14:49:44.853Z,21.09
2019-04-22T14:52:19.365Z,21.16
2019-04-22T14:54:40.129Z,21.07
2019-04-22T14:56:56.336Z,20.99
2019-04-22T14:59:27.027Z,20.96
2019-04-22T15:01:58.211Z,20.92
2019-04-22T15:04:29.060Z,21.01
2019-04-22T15:07:01.051Z,20.84
2019-04-22T15:09:32.240Z,20.85
2019-04-22T15:12:12.062Z,20.82
2019-04-22T15:14:35.538Z,20.82
2019-04-22T15:17:24.971Z,20.88
2019-04-22T15:20:11.910Z,20.86
2019-04-22T15:22:42.466Z,20.72
2019-04-22T15:25:14.388Z,20.82
2019-04-22T15:27:45.916Z,20.63
2019-04-22T15:30:17.170Z,20.59
2019-04-22T15:32:47.719Z,20.59
2019-04-22T15:35:19.474Z,20.44
2019-04-22T15:37:51.133Z,20.44
2019-04-22T15:40:22.667Z,20.27
2019-04-22T15:42:54.928Z,20.20
2019-04-22T15:45:25.942Z,20.05
2019-04-22T15:47:57.889Z,20.05
2019-04-22T15:50:28.715Z,19.92
2019-04-22T15:53:01.728Z,19.91
2019-04-22T15:55:32.569Z,19.84
2019-04-22T15:58:03.889Z,19.68
2019-04-22T16:00:47.201Z,19.60
2019-04-22T16:03:09.141Z,19.58
2019-04-22T16:05:39.632Z,19.47
2019-04-22T16:08:10.882Z,19.43
2019-04-22T16:10:42.090Z,19.39
2019-04-22T16:13:18.950Z,19.28
2019-04-22T16:15:46.664Z,19.16
2019-04-22T16:18:18.205Z,18.97
2019-04-22T16:20:50.327Z,18.92
2019-04-22T16:23:42.658Z,18.86
2019-04-22T16:26:24.315Z,18.77
2019-04-22T16:28:57.608Z,18.61
2019-04-22T16:31:27.177Z,18.61
2019-04-22T16:33:58.399Z,18.38
2019-04-22T16:36:29.212Z,18.30
2019-04-22T16:39:00.554Z,18.32
2019-04-22T16:41:31.040Z,18.10
2019-04-22T16:44:02.736Z,17.37
2019-04-22T16:46:33.836Z,18.13
2019-04-22T16:49:05.674Z,18.07
2019-04-22T16:51:36.498Z,17.93
2019-04-22T16:54:08.552Z,17.84
2019-04-22T16:56:39.679Z,17.85
2019-04-22T16:59:10.795Z,17.84
2019-04-22T17:02:01.062Z,17.72
2019-04-22T17:04:53.526Z,17.56
2019-04-22T17:07:24.516Z,17.51
2019-04-22T17:09:55.568Z,17.49
2019-04-22T17:12:38.653Z,17.31
2019-04-22T17:15:02.742Z,17.18
2019-04-22T17:17:30.835Z,17.15
2019-04-22T17:20:02.931Z,16.91
2019-04-22T17:22:33.721Z,17.03
2019-04-22T17:25:04.483Z,16.96
2019-04-22T17:27:34.937Z,16.82
2019-04-22T17:30:06.620Z,16.58
2019-04-22T17:32:37.766Z,16.16
2019-04-22T17:35:10.288Z,15.86
2019-04-22T17:37:41.442Z,15.62
2019-04-22T17:40:29.805Z,15.53
2019-04-22T17:43:06.700Z,15.23
2019-04-22T17:45:53.949Z,15.13
2019-04-22T17:49:05.976Z,15.17
2019-04-22T17:51:29.887Z,14.83
2019-04-22T17:53:59.851Z,14.69
2019-04-22T17:56:28.055Z,14.66
2019-04-22T17:58:57.229Z,14.54
2019-04-22T18:01:29.592Z,14.43
2019-04-22T18:03:49.753Z,14.45
2019-04-22T18:06:46.606Z,14.32
2019-04-22T18:09:04.938Z,14.26
2019-04-22T18:11:59.091Z,14.21
2019-04-22T18:14:30.508Z,14.17
2019-04-22T18:16:45.897Z,14.21
2019-04-22T18:19:15.382Z,14.12
2019-04-22T18:21:44.911Z,14.12
2019-04-22T18:24:11.720Z,14.14
2019-04-22T18:26:55.531Z,14.12
2019-04-22T18:29:27.108Z,14.21
2019-04-22T18:31:48.989Z,14.26
2019-04-22T18:34:26.649Z,14.34
2019-04-22T18:37:01.786Z,14.45
2019-04-22T18:39:42.479Z,14.50
2019-04-22T18:42:04.877Z,14.48
2019-04-22T18:44:42.354Z,14.52
2019-04-22T18:47:07.304Z,14.53
2019-04-22T18:49:44.836Z,14.55
2019-04-22T18:52:39.823Z,14.40
2019-04-22T18:55:16.392Z,14.31
2019-04-22T18:58:00.831Z,14.30
2019-04-22T19:00:18.763Z,14.29
2019-04-22T19:02:58.499Z,14.28
2019-04-22T19:05:41.904Z,14.20
2019-04-22T19:11:00.120Z,14.20
2019-04-22T19:13:50.088Z,14.07
2019-04-22T19:16:10.667Z,14.17
2019-04-22T19:18:41.830Z,14.04
2019-04-22T19:21:02.801Z,14.15
2019-04-22T19:23:44.883Z,14.12
2019-04-22T19:25:59.720Z,14.08
2019-04-22T19:31:17.399Z,14.09
2019-04-22T19:33:40.672Z,14.08
2019-04-22T19:36:14.656Z,14.10
2019-04-22T19:38:31.141Z,14.08
2019-04-22T19:41:19.995Z,14.11
2019-04-22T19:43:48.920Z,14.04
2019-04-22T19:46:19.507Z,13.98
2019-04-22T19:48:57.921Z,14.00
2019-04-22T19:51:29.477Z,13.94
2019-04-22T19:53:57.665Z,13.81
2019-04-22T19:56:22.933Z,13.69
2019-04-22T19:58:57.673Z,13.66
2019-04-22T20:01:49.493Z,13.60
2019-04-22T20:04:39.166Z,13.52
2019-04-22T20:07:09.900Z,13.46
2019-04-22T20:09:46.319Z,13.37
2019-04-22T20:12:10.585Z,13.25
2019-04-22T20:14:44.976Z,13.23
2019-04-22T20:17:18.685Z,13.19
2019-04-22T20:19:55.463Z,13.09
2019-04-22T20:22:17.618Z,13.07
2019-04-22T20:24:43.383Z,13.05
2019-04-22T20:27:43.127Z,12.98
2019-04-22T20:29:58.203Z,12.90
2019-04-22T20:32:26.416Z,12.94
2019-04-22T20:35:03.006Z,12.90
2019-04-22T20:37:38.447Z,12.85
2019-04-22T20:40:09.155Z,12.79
2019-04-22T20:45:19.505Z,12.69
2019-04-22T20:47:36.861Z,12.65
2019-04-22T20:50:21.806Z,12.64
2019-04-22T20:52:54.073Z,12.56
2019-04-22T20:55:16.293Z,12.53
2019-04-22T20:57:53.329Z,12.50
2019-04-22T21:00:20.003Z,12.48
2019-04-22T21:02:46.580Z,12.45
2019-04-22T21:05:24.973Z,12.36
2019-04-22T21:08:08.392Z,12.41
2019-04-22T21:10:28.718Z,12.38
2019-04-22T21:13:01.276Z,12.27
2019-04-22T21:15:45.870Z,12.25
2019-04-22T21:18:08.361Z,12.26
2019-04-22T21:20:43.311Z,12.27
2019-04-22T21:23:16.486Z,12.26
2019-04-22T21:25:43.057Z,12.24
2019-04-22T21:28:25.892Z,12.18
2019-04-22T21:30:55.183Z,11.34
2019-04-22T21:33:20.991Z,12.11
2019-04-22T21:36:05.417Z,12.02
2019-04-22T21:38:33.129Z,11.98
2019-04-22T21:41:08.417Z,11.86
2019-04-22T21:43:36.919Z,11.99
2019-04-22T21:46:15.098Z,11.79
2019-04-22T21:48:42.320Z,11.86
2019-04-22T21:51:19.270Z,11.91
2019-04-22T21:53:52.188Z,11.86
2019-04-22T21:56:36.887Z,11.86
2019-04-22T21:58:56.110Z,11.81
2019-04-22T22:01:44.745Z,11.76
2019-04-22T22:04:04.837Z,11.71
2019-04-22T22:06:35.372Z,11.65
2019-04-22T22:09:15.330Z,11.63
2019-04-22T22:11:44.536Z,11.60
2019-04-22T22:14:16.943Z,11.62
2019-04-22T22:16:43.474Z,11.65
2019-04-22T22:19:22.672Z,11.60
2019-04-22T22:22:03.638Z,11.61
2019-04-22T22:24:28.921Z,11.57
2019-04-22T22:26:55.872Z,11.50
2019-04-22T22:29:43.057Z,11.51
2019-04-22T22:32:09.394Z,11.51
2019-04-22T22:34:34.864Z,11.41
2019-04-22T22:37:00.371Z,11.51
2019-04-22T22:39:31.058Z,11.53
2019-04-22T22:41:52.042Z,11.55
2019-04-22T22:44:30.308Z,11.44
2019-04-22T22:47:08.702Z,11.38
2019-04-22T22:49:50.309Z,11.32
2019-04-22T22:54:54.130Z,11.37
2019-04-22T22:57:28.785Z,11.34
2019-04-22T22:59:55.461Z,11.28
2019-04-22T23:02:28.409Z,11.07
2019-04-22T23:05:06.180Z,11.17
2019-04-22T23:07:39.278Z,11.20
2019-04-22T23:10:06.113Z,11.21
2019-04-22T23:12:53.822Z,11.22
2019-04-22T23:15:07.481Z,11.30
2019-04-22T23:17:26.178Z,11.13
2019-04-22T23:19:56.097Z,11.25
2019-04-22T23:22:32.505Z,11.09
2019-04-22T23:25:25.086Z,11.21
2019-04-22T23:27:52.595Z,11.22
2019-04-22T23:30:37.903Z,11.24
2019-04-22T23:33:20.307Z,11.29
2019-04-22T23:36:08.731Z,11.34
2019-04-22T23:38:50.808Z,11.35
2019-04-22T23:44:13.849Z,11.34
2019-04-22T23:46:46.480Z,11.34
2019-04-22T23:49:17.430Z,11.29
2019-04-22T23:52:06.854Z,11.06
2019-04-22T23:54:35.810Z,10.95
2019-04-22T23:56:57.040Z,10.88
